Hopewell, Canada
Current Conditions -  °F | °C
As of 7:00 AM on Monday 22 Dec 2014 (Local Time) from CYHZ Reporting Station
Overcast Overcast  
Wind Chill: -7°   Ceiling: 2000
Heat Index: -3°   Visibility: 15mi
Dew Point: -6°   Wind: 7mph
Humidity: 80%   Direction: 70°ENE
Pressure: 30.39"   Gusts: NA
Location:  45.47°N, 62.7°W
Report Text: CYHZ 221100Z 07006KT 15SM OVC020 M03/M06 A3039 RMK SC8 SLP300
Loading
Personal Weather Stations






























Interactive Weather Map New forecast layout! Learn more

10-Day Weather Forecast

Advertisements
Track Severe Weather on mobile